createdAt,value
2019-05-21T00:02:28.008Z,21.77
2019-05-21T00:04:57.525Z,20.40
2019-05-21T00:07:45.998Z,21.50
2019-05-21T00:10:15.590Z,22.37
2019-05-21T00:12:45.178Z,21.07
2019-05-21T00:15:14.622Z,23.10
2019-05-21T00:17:44.217Z,21.77
2019-05-21T00:20:14.233Z,24.00
2019-05-21T00:22:43.806Z,22.13
2019-05-21T00:25:16.939Z,21.87
2019-05-21T00:27:44.714Z,24.33
2019-05-21T00:30:49.732Z,22.90
2019-05-21T00:33:56.256Z,23.17
2019-05-21T00:37:04.153Z,21.47
2019-05-21T00:40:09.788Z,22.63
2019-05-21T00:42:42.526Z,23.20
2019-05-21T00:45:19.618Z,25.20
2019-05-21T00:47:49.191Z,22.63
2019-05-21T00:50:18.596Z,22.87
2019-05-21T00:52:58.843Z,22.20
2019-05-21T00:55:28.378Z,21.83
2019-05-21T00:57:57.795Z,21.53
2019-05-21T01:00:27.539Z,22.37
2019-05-21T01:02:57.017Z,23.13
2019-05-21T01:05:45.469Z,23.53
2019-05-21T01:08:15.175Z,24.57
2019-05-21T01:10:44.675Z,24.73
2019-05-21T01:13:14.542Z,25.43
2019-05-21T01:15:44.024Z,25.47
2019-05-21T01:18:13.444Z,27.57
2019-05-21T01:20:42.949Z,26.40
2019-05-21T01:23:12.519Z,28.40
2019-05-21T01:25:42.286Z,26.87
2019-05-21T01:28:11.722Z,26.70
2019-05-21T01:30:41.175Z,29.10
2019-05-21T01:33:10.789Z,26.60
2019-05-21T01:35:40.607Z,27.40
2019-05-21T01:38:10.122Z,26.57
2019-05-21T01:40:39.703Z,29.53
2019-05-21T01:43:09.221Z,29.13
2019-05-21T01:45:38.802Z,28.40
2019-05-21T01:48:08.327Z,29.27
2019-05-21T01:50:38.033Z,31.17
2019-05-21T01:53:07.658Z,31.93
2019-05-21T01:55:37.160Z,31.43
2019-05-21T01:58:06.654Z,31.83
2019-05-21T02:00:36.353Z,31.93
2019-05-21T02:03:06.136Z,30.90
2019-05-21T02:05:36.158Z,31.77
2019-05-21T02:08:05.732Z,30.43
2019-05-21T02:10:35.442Z,30.60
2019-05-21T02:13:05.414Z,31.60
2019-05-21T02:15:34.904Z,33.30
2019-05-21T02:18:04.699Z,33.37
2019-05-21T02:20:34.267Z,32.70
2019-05-21T02:23:03.712Z,30.53
2019-05-21T02:25:33.304Z,32.80
2019-05-21T02:28:02.754Z,30.90
2019-05-21T02:30:32.482Z,31.57
2019-05-21T02:33:02.172Z,29.40
2019-05-21T02:35:31.696Z,26.37
2019-05-21T02:38:01.148Z,27.03
2019-05-21T02:40:30.686Z,27.07
2019-05-21T02:43:00.136Z,28.50
2019-05-21T02:45:29.811Z,28.87
2019-05-21T02:47:59.305Z,28.77
2019-05-21T02:50:28.990Z,29.67
2019-05-21T02:53:17.499Z,27.67
2019-05-21T02:55:47.078Z,28.20
2019-05-21T02:58:16.670Z,28.23
2019-05-21T03:00:59.242Z,28.73
2019-05-21T03:03:30.458Z,28.87
2019-05-21T03:06:13.130Z,30.70
2019-05-21T03:08:31.484Z,28.10
2019-05-21T03:11:00.886Z,28.03
2019-05-21T03:13:30.353Z,28.70
2019-05-21T03:15:59.979Z,28.27
2019-05-21T03:18:29.464Z,29.47
2019-05-21T03:20:58.939Z,30.17
2019-05-21T03:23:28.466Z,30.40
2019-05-21T03:25:57.922Z,30.03
2019-05-21T03:28:27.326Z,29.63
2019-05-21T03:30:56.976Z,27.80
2019-05-21T03:33:26.617Z,27.87
2019-05-21T03:35:56.390Z,27.27
2019-05-21T03:38:26.286Z,27.93
2019-05-21T03:40:57.333Z,27.47
2019-05-21T03:43:26.748Z,28.10
2019-05-21T03:45:56.249Z,29.30
2019-05-21T03:48:25.831Z,28.33
2019-05-21T03:50:55.797Z,26.83
2019-05-21T03:53:25.533Z,27.57
2019-05-21T03:55:55.195Z,25.20
2019-05-21T03:58:24.801Z,26.60
2019-05-21T04:00:54.480Z,25.50
2019-05-21T04:03:23.894Z,25.03
2019-05-21T04:05:53.725Z,24.97
2019-05-21T04:08:26.635Z,25.10
2019-05-21T04:10:56.206Z,23.30
2019-05-21T04:13:26.183Z,24.90
2019-05-21T04:16:21.626Z,23.40
2019-05-21T04:19:03.959Z,23.37
2019-05-21T04:21:33.427Z,24.53
2019-05-21T04:24:02.826Z,24.60
2019-05-21T04:26:32.403Z,23.37
2019-05-21T04:29:02.039Z,25.00
2019-05-21T04:31:32.188Z,24.60
2019-05-21T04:34:01.795Z,26.97
2019-05-21T04:36:31.474Z,24.97
2019-05-21T04:39:01.057Z,25.37
2019-05-21T04:41:30.740Z,25.13
2019-05-21T04:44:00.456Z,22.83
2019-05-21T04:46:29.848Z,23.10
2019-05-21T04:48:59.582Z,22.50
2019-05-21T04:51:29.123Z,22.67
2019-05-21T04:53:58.533Z,19.40
2019-05-21T04:56:47.157Z,21.87
2019-05-21T04:59:16.689Z,22.80
2019-05-21T05:01:46.334Z,23.13
2019-05-21T05:04:21.229Z,22.13
2019-05-21T05:06:47.078Z,23.47
2019-05-21T05:09:16.802Z,23.70
2019-05-21T05:11:46.235Z,24.30
2019-05-21T05:14:15.855Z,24.63
2019-05-21T05:16:45.415Z,24.53
2019-05-21T05:19:14.922Z,26.30
2019-05-21T05:21:44.433Z,23.77
2019-05-21T05:24:13.953Z,25.07
2019-05-21T05:26:43.445Z,23.87
2019-05-21T05:29:13.027Z,23.87
2019-05-21T05:31:42.538Z,23.93
2019-05-21T05:34:12.424Z,25.47
2019-05-21T05:36:41.972Z,23.03
2019-05-21T05:39:12.904Z,24.17
2019-05-21T05:41:42.450Z,24.77
2019-05-21T05:44:11.954Z,26.10
2019-05-21T05:46:41.463Z,25.70
2019-05-21T05:49:16.457Z,25.90
2019-05-21T05:51:46.082Z,25.03
2019-05-21T05:54:15.597Z,24.23
2019-05-21T05:56:45.495Z,23.23
2019-05-21T05:59:15.070Z,23.67
2019-05-21T06:01:44.671Z,24.07
2019-05-21T06:04:14.181Z,26.80
2019-05-21T06:06:43.754Z,23.73
2019-05-21T06:09:13.219Z,25.50
2019-05-21T06:11:42.787Z,26.10
2019-05-21T06:14:12.348Z,23.67
2019-05-21T06:16:42.018Z,24.33
2019-05-21T06:19:11.609Z,23.50
2019-05-21T06:21:41.081Z,22.90
2019-05-21T06:24:13.478Z,23.33
2019-05-21T06:26:43.762Z,21.77
2019-05-21T06:29:13.062Z,21.00
2019-05-21T06:31:42.461Z,19.63
2019-05-21T06:34:11.755Z,20.83
2019-05-21T06:36:41.115Z,20.67
2019-05-21T06:39:10.631Z,20.20
2019-05-21T06:41:39.983Z,19.63
2019-05-21T06:44:09.177Z,19.73
2019-05-21T06:46:39.485Z,19.33
2019-05-21T06:49:08.936Z,19.37
2019-05-21T06:51:38.367Z,20.93
2019-05-21T06:54:07.794Z,18.77
2019-05-21T06:56:37.086Z,18.90
2019-05-21T06:59:06.524Z,18.70
2019-05-21T07:01:35.853Z,18.40
2019-05-21T07:04:05.349Z,21.23
2019-05-21T07:06:34.804Z,19.67
2019-05-21T07:09:05.285Z,19.80
2019-05-21T07:11:34.565Z,19.80
2019-05-21T07:14:04.198Z,19.20
2019-05-21T07:16:33.451Z,18.37
2019-05-21T07:19:02.837Z,17.77
2019-05-21T07:21:32.407Z,20.03
2019-05-21T07:24:01.733Z,18.70
2019-05-21T07:26:31.149Z,18.13
2019-05-21T07:29:00.436Z,18.47
2019-05-21T07:31:30.112Z,17.57
2019-05-21T07:33:59.323Z,17.93
2019-05-21T07:36:28.945Z,18.60
2019-05-21T07:38:58.339Z,19.67
2019-05-21T07:41:28.682Z,18.80
2019-05-21T07:43:57.878Z,18.67
2019-05-21T07:46:27.544Z,18.80
2019-05-21T07:48:56.821Z,19.00
2019-05-21T07:51:26.129Z,19.33
2019-05-21T07:53:55.488Z,18.33
2019-05-21T07:56:24.774Z,17.67
2019-05-21T07:58:54.148Z,17.93
2019-05-21T08:01:23.543Z,16.43
2019-05-21T08:03:52.889Z,17.70
2019-05-21T08:06:22.300Z,17.33
2019-05-21T08:08:51.834Z,18.07
2019-05-21T08:11:21.231Z,16.60
2019-05-21T08:13:51.064Z,16.67
2019-05-21T08:16:20.417Z,16.13
2019-05-21T08:18:49.929Z,17.03
2019-05-21T08:21:19.219Z,15.33
2019-05-21T08:23:48.544Z,15.00
2019-05-21T08:26:17.822Z,16.53
2019-05-21T08:28:47.160Z,15.90
2019-05-21T08:31:16.473Z,15.90
2019-05-21T08:33:45.920Z,16.23
2019-05-21T08:36:15.207Z,15.63
2019-05-21T08:38:44.469Z,15.73
2019-05-21T08:41:13.840Z,17.00
2019-05-21T08:43:43.144Z,15.70
2019-05-21T08:46:12.539Z,16.30
2019-05-21T08:48:41.847Z,17.27
2019-05-21T08:51:17.074Z,16.30
2019-05-21T08:53:46.355Z,16.53
2019-05-21T08:56:15.698Z,16.70
2019-05-21T08:58:44.997Z,16.90
2019-05-21T09:01:14.369Z,18.20
2019-05-21T09:03:43.615Z,16.83
2019-05-21T09:06:13.021Z,16.43
2019-05-21T09:08:42.321Z,17.03
2019-05-21T09:11:11.877Z,17.37
2019-05-21T09:13:41.091Z,17.17
2019-05-21T09:16:10.292Z,17.07
2019-05-21T09:18:39.774Z,16.87
2019-05-21T09:21:09.193Z,16.83
2019-05-21T09:23:38.405Z,16.90
2019-05-21T09:26:07.703Z,17.30
2019-05-21T09:28:37.073Z,18.87
2019-05-21T09:31:06.357Z,17.67
2019-05-21T09:33:35.613Z,17.73
2019-05-21T09:36:04.942Z,16.90
2019-05-21T09:38:34.544Z,17.80
2019-05-21T09:41:03.744Z,17.93
2019-05-21T09:43:33.270Z,17.73
2019-05-21T09:46:02.542Z,16.97
2019-05-21T09:48:32.621Z,16.70
2019-05-21T09:51:01.940Z,16.80
2019-05-21T09:53:31.393Z,16.63
2019-05-21T09:56:19.760Z,17.27
2019-05-21T09:58:49.333Z,15.47
2019-05-21T10:01:34.624Z,17.27
2019-05-21T10:04:03.970Z,16.33
2019-05-21T10:06:33.292Z,15.13
2019-05-21T10:09:02.989Z,15.73
2019-05-21T10:11:32.343Z,16.70
2019-05-21T10:14:01.671Z,17.03
2019-05-21T10:16:31.051Z,16.10
2019-05-21T10:19:03.431Z,15.97
2019-05-21T10:21:32.656Z,16.37
2019-05-21T10:24:02.166Z,16.17
2019-05-21T10:26:31.555Z,16.37
2019-05-21T10:29:00.913Z,17.20
2019-05-21T10:31:30.257Z,15.20
2019-05-21T10:34:07.082Z,15.03
2019-05-21T10:36:36.324Z,15.43
2019-05-21T10:39:07.232Z,14.40
2019-05-21T10:41:36.600Z,14.93
2019-05-21T10:44:06.377Z,16.20
2019-05-21T10:46:35.656Z,14.87
2019-05-21T10:49:05.235Z,14.00
2019-05-21T10:51:34.815Z,14.53
2019-05-21T10:54:05.165Z,14.10
2019-05-21T10:56:47.462Z,13.87
2019-05-21T10:59:06.056Z,14.53
2019-05-21T11:01:54.467Z,12.37
2019-05-21T11:04:52.081Z,12.63
2019-05-21T11:07:23.087Z,14.13
2019-05-21T11:09:52.475Z,13.33
2019-05-21T11:12:21.705Z,14.30
2019-05-21T11:14:50.983Z,14.07
2019-05-21T11:17:20.886Z,13.30
2019-05-21T11:19:50.550Z,13.17
2019-05-21T11:22:19.858Z,12.00
2019-05-21T11:24:49.166Z,12.67
2019-05-21T11:27:18.455Z,12.30
2019-05-21T11:29:47.748Z,12.67
2019-05-21T11:32:17.091Z,11.87
2019-05-21T11:34:49.813Z,12.30
2019-05-21T11:37:17.330Z,12.17
2019-05-21T11:39:46.560Z,12.10
2019-05-21T11:42:15.948Z,11.80
2019-05-21T11:44:45.322Z,11.17
2019-05-21T11:47:14.757Z,11.10
2019-05-21T11:49:44.104Z,10.80
2019-05-21T11:52:13.464Z,10.80
2019-05-21T11:54:42.680Z,11.13
2019-05-21T11:57:11.993Z,10.87
2019-05-21T11:59:41.260Z,11.37
2019-05-21T12:02:10.991Z,12.40
2019-05-21T12:04:40.324Z,13.00
2019-05-21T12:07:09.617Z,11.77
2019-05-21T12:09:38.957Z,10.97
2019-05-21T12:12:08.339Z,10.83
2019-05-21T12:14:37.616Z,10.77
2019-05-21T12:17:06.931Z,11.03
2019-05-21T12:19:36.241Z,10.53
2019-05-21T12:22:05.812Z,10.77
2019-05-21T12:24:36.403Z,10.90
2019-05-21T12:27:05.669Z,9.83
2019-05-21T12:29:35.066Z,10.70
2019-05-21T12:32:04.967Z,10.47
2019-05-21T12:34:34.333Z,10.93
2019-05-21T12:37:03.655Z,10.47
2019-05-21T12:39:32.912Z,10.03
2019-05-21T12:42:02.302Z,10.20
2019-05-21T12:44:31.637Z,9.87
2019-05-21T12:47:00.999Z,11.30
2019-05-21T12:49:30.506Z,11.13
2019-05-21T12:51:59.810Z,11.57
2019-05-21T12:54:29.313Z,12.10
2019-05-21T12:56:58.701Z,11.83
2019-05-21T12:59:27.921Z,12.20
2019-05-21T13:01:57.262Z,13.73
2019-05-21T13:04:26.641Z,13.67
2019-05-21T13:06:55.960Z,13.60
2019-05-21T13:09:32.727Z,12.87
2019-05-21T13:11:56.291Z,13.07
2019-05-21T13:14:25.560Z,13.83
2019-05-21T13:16:54.902Z,11.63
2019-05-21T13:19:24.204Z,11.80
2019-05-21T13:21:53.567Z,12.03
2019-05-21T13:24:22.963Z,11.83
2019-05-21T13:26:52.992Z,12.77
2019-05-21T13:29:22.483Z,12.67
2019-05-21T13:31:52.106Z,12.83
2019-05-21T13:34:21.401Z,13.87
2019-05-21T13:36:50.668Z,13.57
2019-05-21T13:39:19.978Z,13.47
2019-05-21T13:41:49.347Z,13.77
2019-05-21T13:44:18.747Z,11.67
2019-05-21T13:46:49.979Z,13.87
2019-05-21T13:49:19.246Z,13.90
2019-05-21T13:51:48.480Z,13.80
2019-05-21T13:54:18.215Z,14.23
2019-05-21T13:56:47.579Z,13.27
2019-05-21T13:59:25.709Z,14.40
2019-05-21T14:01:55.270Z,13.10
2019-05-21T14:04:24.541Z,13.17
2019-05-21T14:06:53.950Z,13.20
2019-05-21T14:09:23.308Z,14.37
2019-05-21T14:11:52.602Z,13.53
2019-05-21T14:14:21.931Z,12.77
2019-05-21T14:16:51.145Z,12.90
2019-05-21T14:19:20.499Z,12.77
2019-05-21T14:21:49.811Z,12.57
2019-05-21T14:24:19.158Z,14.00
2019-05-21T14:26:48.499Z,14.13
2019-05-21T14:29:18.009Z,13.03
2019-05-21T14:31:47.225Z,13.17
2019-05-21T14:34:16.601Z,12.73
2019-05-21T14:36:45.957Z,12.13
2019-05-21T14:39:17.263Z,12.93
2019-05-21T14:41:46.621Z,12.43
2019-05-21T14:44:19.080Z,12.20
2019-05-21T14:46:48.518Z,12.17
2019-05-21T14:49:17.878Z,12.17
2019-05-21T14:51:47.203Z,12.20
2019-05-21T14:54:26.381Z,11.60
2019-05-21T14:56:48.105Z,11.77
2019-05-21T14:59:17.585Z,11.50
2019-05-21T15:01:46.987Z,10.17
2019-05-21T15:04:16.513Z,9.80
2019-05-21T15:06:45.983Z,10.07
2019-05-21T15:09:15.388Z,9.67
2019-05-21T15:11:56.888Z,10.40
2019-05-21T15:14:26.330Z,9.93
2019-05-21T15:16:55.794Z,10.07
2019-05-21T15:19:25.152Z,11.53
2019-05-21T15:21:55.735Z,15.03
2019-05-21T15:24:25.185Z,14.80
2019-05-21T15:26:54.522Z,15.50
2019-05-21T15:29:23.833Z,17.37
2019-05-21T15:31:53.379Z,16.23
2019-05-21T15:34:22.686Z,16.73
2019-05-21T15:36:52.080Z,16.57
2019-05-21T15:39:21.401Z,16.17
2019-05-21T15:41:51.184Z,16.07
2019-05-21T15:44:20.601Z,16.23
2019-05-21T15:46:51.325Z,15.77
2019-05-21T15:49:35.003Z,17.23
2019-05-21T15:51:52.251Z,15.30
2019-05-21T15:54:21.576Z,16.10
2019-05-21T15:56:51.040Z,15.97
2019-05-21T15:59:29.580Z,16.83
2019-05-21T16:01:59.278Z,16.20
2019-05-21T16:04:29.531Z,16.93
2019-05-21T16:06:58.791Z,17.37
2019-05-21T16:09:28.058Z,17.43
2019-05-21T16:11:57.664Z,17.67
2019-05-21T16:14:27.048Z,16.93
2019-05-21T16:16:57.271Z,16.57
2019-05-21T16:19:26.548Z,16.20
2019-05-21T16:21:55.919Z,16.43
2019-05-21T16:24:25.205Z,17.07
2019-05-21T16:26:54.458Z,16.97
2019-05-21T16:29:23.805Z,16.93
2019-05-21T16:31:53.206Z,16.90
2019-05-21T16:34:22.645Z,16.10
2019-05-21T16:36:51.945Z,14.90
2019-05-21T16:39:23.205Z,14.60
2019-05-21T16:41:52.623Z,14.60
2019-05-21T16:44:21.862Z,16.40
2019-05-21T16:46:51.237Z,15.77
2019-05-21T16:49:20.635Z,15.50
2019-05-21T16:51:50.009Z,16.40
2019-05-21T16:54:19.631Z,15.47
2019-05-21T16:56:48.923Z,15.50
2019-05-21T16:59:18.325Z,15.87
2019-05-21T17:01:47.623Z,15.03
2019-05-21T17:04:16.909Z,16.90
2019-05-21T17:06:46.322Z,16.77
2019-05-21T17:09:15.658Z,15.93
2019-05-21T17:11:59.041Z,15.93
2019-05-21T17:14:15.863Z,16.70
2019-05-21T17:16:45.272Z,17.97
2019-05-21T17:19:14.484Z,16.70
2019-05-21T17:21:43.895Z,17.50
2019-05-21T17:24:13.486Z,17.17
2019-05-21T17:26:44.704Z,17.83
2019-05-21T17:29:14.070Z,17.23
2019-05-21T17:31:43.549Z,16.80
2019-05-21T17:34:12.925Z,17.20
2019-05-21T17:36:42.286Z,15.93
2019-05-21T17:39:11.572Z,15.57
2019-05-21T17:41:41.069Z,16.17
2019-05-21T17:44:10.624Z,15.10
2019-05-21T17:46:40.133Z,16.10
2019-05-21T17:49:09.415Z,17.17
2019-05-21T17:51:38.872Z,16.07
2019-05-21T17:54:08.271Z,15.83
2019-05-21T17:56:37.579Z,16.03
2019-05-21T17:59:06.924Z,16.67
2019-05-21T18:01:36.548Z,15.07
2019-05-21T18:04:06.125Z,14.53
2019-05-21T18:06:35.497Z,15.40
2019-05-21T18:09:08.598Z,17.37
2019-05-21T18:11:37.956Z,16.73
2019-05-21T18:14:07.324Z,17.57
2019-05-21T18:16:36.639Z,16.53
2019-05-21T18:19:08.466Z,17.00
2019-05-21T18:21:38.225Z,17.07
2019-05-21T18:24:16.714Z,17.87
2019-05-21T18:26:46.233Z,17.70
2019-05-21T18:29:15.534Z,17.93
2019-05-21T18:31:45.281Z,18.67
2019-05-21T18:34:14.878Z,17.53
2019-05-21T18:36:44.392Z,17.47
2019-05-21T18:39:32.647Z,18.93
2019-05-21T18:42:02.007Z,19.17
2019-05-21T18:44:31.444Z,18.63
2019-05-21T18:47:00.873Z,18.63
2019-05-21T18:49:30.244Z,20.20
2019-05-21T18:52:00.013Z,18.63
2019-05-21T18:54:29.237Z,19.63
2019-05-21T18:56:58.460Z,18.73
2019-05-21T18:59:28.026Z,17.90
2019-05-21T19:01:57.335Z,18.30
2019-05-21T19:04:26.764Z,18.93
2019-05-21T19:06:56.158Z,19.60
2019-05-21T19:09:25.779Z,21.33
2019-05-21T19:11:55.189Z,19.63
2019-05-21T19:14:24.486Z,19.03
2019-05-21T19:16:54.084Z,18.67
2019-05-21T19:19:23.474Z,20.77
2019-05-21T19:21:52.848Z,20.37
2019-05-21T19:24:22.323Z,20.67
2019-05-21T19:26:51.656Z,21.10
2019-05-21T19:29:21.008Z,20.97
2019-05-21T19:31:50.368Z,20.73
2019-05-21T19:34:19.638Z,22.17
2019-05-21T19:36:48.980Z,21.03
2019-05-21T19:39:19.135Z,21.37
2019-05-21T19:41:48.435Z,22.23
2019-05-21T19:44:17.829Z,21.87
2019-05-21T19:46:47.239Z,21.33
2019-05-21T19:49:16.569Z,22.97
2019-05-21T19:51:46.011Z,22.53
2019-05-21T19:54:15.352Z,21.13
2019-05-21T19:56:44.680Z,23.37
2019-05-21T19:59:13.940Z,22.43
2019-05-21T20:01:43.279Z,24.70
2019-05-21T20:04:12.651Z,23.53
2019-05-21T20:06:42.132Z,24.43
2019-05-21T20:09:16.633Z,26.93
2019-05-21T20:11:45.906Z,25.70
2019-05-21T20:14:15.387Z,25.17
2019-05-21T20:16:45.177Z,26.87
2019-05-21T20:19:15.330Z,26.80
2019-05-21T20:21:45.209Z,27.50
2019-05-21T20:24:14.577Z,26.90
2019-05-21T20:26:44.361Z,27.70
2019-05-21T20:29:13.873Z,26.97
2019-05-21T20:31:43.940Z,26.70
2019-05-21T20:34:13.553Z,29.37
2019-05-21T20:36:42.906Z,28.23
2019-05-21T20:39:14.953Z,28.80
2019-05-21T20:41:44.635Z,28.80
2019-05-21T20:44:15.962Z,28.37
2019-05-21T20:46:45.273Z,28.13
2019-05-21T20:49:14.833Z,28.33
2019-05-21T20:51:44.217Z,25.77
2019-05-21T20:54:15.766Z,27.43
2019-05-21T20:56:45.271Z,27.83
2019-05-21T20:59:14.627Z,27.57
2019-05-21T21:01:44.361Z,29.67
2019-05-21T21:04:13.740Z,29.27
2019-05-21T21:06:43.101Z,28.80
2019-05-21T21:09:13.637Z,27.53
2019-05-21T21:11:43.166Z,27.90
2019-05-21T21:14:18.376Z,26.40
2019-05-21T21:16:47.720Z,28.67
2019-05-21T21:19:17.214Z,29.83
2019-05-21T21:21:46.623Z,29.83
2019-05-21T21:24:16.207Z,30.07
2019-05-21T21:27:04.675Z,30.17
2019-05-21T21:29:34.094Z,30.13
2019-05-21T21:32:03.450Z,26.60
2019-05-21T21:34:33.064Z,28.03
2019-05-21T21:37:02.511Z,26.13
2019-05-21T21:39:32.037Z,28.17
2019-05-21T21:42:02.854Z,28.23
2019-05-21T21:44:34.302Z,26.33
2019-05-21T21:47:03.852Z,27.50
2019-05-21T21:49:35.360Z,28.53
2019-05-21T21:52:07.115Z,27.63
2019-05-21T21:54:36.688Z,26.77
2019-05-21T21:57:05.948Z,23.93
2019-05-21T21:59:35.379Z,22.70
2019-05-21T22:02:17.415Z,23.60
2019-05-21T22:04:47.213Z,23.63
2019-05-21T22:07:16.866Z,22.77
2019-05-21T22:09:55.555Z,24.60
2019-05-21T22:12:28.296Z,24.97
2019-05-21T22:15:01.954Z,25.03
2019-05-21T22:17:31.320Z,23.53
2019-05-21T22:20:00.937Z,25.67
2019-05-21T22:22:31.338Z,26.47
2019-05-21T22:25:00.696Z,26.17
2019-05-21T22:27:32.537Z,27.17
2019-05-21T22:30:01.847Z,25.93
2019-05-21T22:32:31.637Z,25.63
2019-05-21T22:35:00.914Z,25.30
2019-05-21T22:37:30.423Z,26.90
2019-05-21T22:39:59.661Z,25.90
2019-05-21T22:42:28.910Z,27.43
2019-05-21T22:45:07.987Z,26.40
2019-05-21T22:47:30.194Z,26.97
2019-05-21T22:49:59.698Z,26.43
2019-05-21T22:52:28.918Z,24.13
2019-05-21T22:54:58.410Z,25.07
2019-05-21T22:57:27.787Z,24.77
2019-05-21T22:59:57.037Z,26.73
2019-05-21T23:02:30.362Z,25.13
2019-05-21T23:04:59.925Z,24.43
2019-05-21T23:07:29.291Z,24.30
2019-05-21T23:09:59.344Z,22.27
2019-05-21T23:12:29.692Z,21.70
2019-05-21T23:14:59.082Z,20.97
2019-05-21T23:17:28.640Z,19.83
2019-05-21T23:19:57.940Z,19.03
2019-05-21T23:22:27.478Z,19.70
2019-05-21T23:24:56.879Z,17.87
2019-05-21T23:27:26.194Z,16.00
2019-05-21T23:29:55.881Z,15.03
2019-05-21T23:32:25.161Z,14.93
2019-05-21T23:34:54.924Z,13.73
2019-05-21T23:37:25.418Z,14.90
2019-05-21T23:39:55.763Z,14.80
2019-05-21T23:42:44.149Z,12.90
2019-05-21T23:45:15.652Z,12.27
2019-05-21T23:47:45.012Z,11.57
2019-05-21T23:50:15.237Z,10.63
2019-05-21T23:52:45.040Z,11.20
2019-05-21T23:55:14.892Z,11.50
2019-05-21T23:57:44.924Z,10.40
